Time,TemperatureF,DewpointF,PressureIn,WindDirection,WindDirectionDegrees,WindSpeedMPH,WindSpeedGustMPH,Humidity,HourlyPrecipIn,Conditions,Clouds,dailyrainin,SoftwareType,DateUTC
2013-08-07 00:01:00,54.1,48.1,30.16,South,175,0.0,0.0,80,0.00,,CLR,0.00,VWS V14.01,2013-08-07 04:01:00,
2013-08-07 00:02:00,54.1,48.1,30.16,South,175,0.0,0.0,80,0.00,,CLR,0.00,VWS V14.01,2013-08-07 04:02:00,
2013-08-07 00:07:00,54.0,47.9,30.16,South,175,0.0,0.0,80,0.00,,CLR,0.00,VWS V14.01,2013-08-07 04:07:00,
2013-08-07 00:12:00,53.8,47.8,30.16,South,175,0.0,0.0,80,0.00,,CLR,0.00,VWS V14.01,2013-08-07 04:12:00,
2013-08-07 00:17:00,53.8,47.8,30.16,South,175,0.0,0.0,80,0.00,,CLR,0.00,VWS V14.01,2013-08-07 04:17:00,
2013-08-07 00:22:00,53.4,47.7,30.16,South,174,0.0,0.0,81,0.00,,CLR,0.00,VWS V14.01,2013-08-07 04:22:00,
2013-08-07 00:27:00,53.2,47.6,30.16,South,174,0.0,0.0,81,0.00,,CLR,0.00,VWS V14.01,2013-08-07 04:27:00,
2013-08-07 00:32:00,53.1,47.4,30.16,South,174,0.0,0.0,81,0.00,,CLR,0.00,VWS V14.01,2013-08-07 04:32:00,
2013-08-07 00:37:00,52.9,47.2,30.16,South,174,0.0,0.0,81,0.00,,CLR,0.00,VWS V14.01,2013-08-07 04:37:00,
2013-08-07 00:42:00,52.9,47.2,30.16,South,174,0.0,0.0,81,0.00,,BKN050,0.00,VWS V14.01,2013-08-07 04:42:00,
2013-08-07 00:47:00,52.5,47.2,30.16,South,175,0.0,0.0,82,0.00,,BKN050,0.00,VWS V14.01,2013-08-07 04:47:00,
2013-08-07 00:52:00,52.5,47.2,30.16,South,175,0.0,0.0,82,0.00,,BKN050,0.00,VWS V14.01,2013-08-07 04:52:00,
2013-08-07 00:57:00,52.3,47.0,30.16,South,175,0.0,0.0,82,0.00,,BKN050,0.00,VWS V14.01,2013-08-07 04:57:00,
2013-08-07 01:02:00,52.2,46.8,30.16,South,174,0.0,0.0,82,0.00,,BKN050,0.00,VWS V14.01,2013-08-07 05:02:00,
2013-08-07 01:07:00,52.2,46.8,30.16,South,174,0.0,0.0,82,0.00,,BKN050,0.00,VWS V14.01,2013-08-07 05:07:00,
2013-08-07 01:12:00,51.8,46.5,30.16,South,174,0.0,0.0,82,0.00,,BKN050,0.00,VWS V14.01,2013-08-07 05:12:00,
2013-08-07 01:17:00,51.8,46.8,30.16,South,174,0.0,0.0,83,0.00,,BKN050,0.00,VWS V14.01,2013-08-07 05:17:00,
2013-08-07 01:22:00,51.6,46.6,30.16,South,175,0.0,0.0,83,0.00,,BKN050,0.00,VWS V14.01,2013-08-07 05:22:00,
2013-08-07 01:27:00,51.6,46.6,30.16,South,175,0.0,0.0,83,0.00,,BKN050,0.00,VWS V14.01,2013-08-07 05:27:00,
2013-08-07 01:32:00,51.6,47.0,30.16,South,175,0.0,0.0,84,0.00,,BKN050,0.00,VWS V14.01,2013-08-07 05:32:00,
2013-08-07 01:37:00,51.4,46.8,30.16,South,175,0.0,0.0,84,0.00,,BKN050,0.39,VWS V14.01,2013-08-07 05:37:00,
2013-08-07 01:42:00,51.4,46.8,30.16,South,175,0.0,0.0,84,0.00,,CLR,0.00,VWS V14.01,2013-08-07 05:42:00,
2013-08-07 01:47:00,51.3,46.6,30.16,South,175,0.0,0.0,84,0.00,,CLR,0.00,VWS V14.01,2013-08-07 05:47:00,
2013-08-07 01:52:00,51.3,46.6,30.16,South,175,0.0,0.0,84,0.00,,CLR,0.00,VWS V14.01,2013-08-07 05:52:00,
2013-08-07 01:57:00,51.1,46.4,30.16,South,175,0.0,0.0,84,0.00,,CLR,0.00,VWS V14.01,2013-08-07 05:57:00,
2013-08-07 02:02:00,51.1,46.4,30.16,South,175,0.0,0.0,84,0.00,,CLR,0.00,VWS V14.01,2013-08-07 06:02:00,
2013-08-07 02:07:00,51.1,46.7,30.16,South,175,0.0,0.0,85,0.00,,CLR,0.00,VWS V14.01,2013-08-07 06:07:00,
2013-08-07 02:12:00,51.1,46.7,30.16,South,175,0.0,0.0,85,0.00,,CLR,0.00,VWS V14.01,2013-08-07 06:12:00,
2013-08-07 02:17:00,51.1,46.7,30.16,South,175,0.0,0.0,85,0.00,,CLR,0.00,VWS V14.01,2013-08-07 06:17:00,
2013-08-07 02:22:00,51.1,46.7,30.16,South,175,0.0,0.0,85,0.00,,CLR,0.00,VWS V14.01,2013-08-07 06:22:00,
2013-08-07 02:27:00,51.1,46.7,30.16,South,175,0.0,0.0,85,0.00,,CLR,0.00,VWS V14.01,2013-08-07 06:27:00,
2013-08-07 02:32:00,51.3,46.9,30.16,South,175,0.0,0.0,85,0.00,,CLR,0.00,VWS V14.01,2013-08-07 06:32:00,
2013-08-07 02:37:00,51.3,47.2,30.16,South,175,0.0,0.0,86,0.00,,CLR,0.00,VWS V14.01,2013-08-07 06:37:00,
2013-08-07 02:42:00,51.3,47.2,30.16,South,175,0.0,0.0,86,0.00,,CLR,0.00,VWS V14.01,2013-08-07 06:42:00,
2013-08-07 02:47:00,51.6,47.6,30.16,South,175,0.0,0.0,86,0.00,,CLR,0.00,VWS V14.01,2013-08-07 06:47:00,
2013-08-07 02:52:00,51.6,47.6,30.16,South,175,0.0,0.0,86,0.00,,CLR,0.00,VWS V14.01,2013-08-07 06:52:00,
2013-08-07 02:57:00,51.8,47.8,30.16,South,175,0.0,0.0,86,0.00,,CLR,0.00,VWS V14.01,2013-08-07 06:57:00,
2013-08-07 03:02:00,51.8,47.8,30.16,South,175,0.0,0.0,86,0.00,,CLR,0.00,VWS V14.01,2013-08-07 07:02:00,
2013-08-07 03:07:00,52.0,47.9,30.16,South,175,0.0,0.0,86,0.00,,CLR,0.00,VWS V14.01,2013-08-07 07:07:00,
2013-08-07 03:12:00,52.3,48.6,30.16,South,174,0.0,0.0,87,0.00,,CLR,0.00,VWS V14.01,2013-08-07 07:12:00,
2013-08-07 03:17:00,52.3,48.6,30.19,South,175,0.0,0.0,87,0.00,,CLR,0.00,VWS V14.01,2013-08-07 07:17:00,
2013-08-07 03:22:00,52.5,48.8,30.19,South,174,0.0,0.0,87,0.00,,CLR,0.00,VWS V14.01,2013-08-07 07:22:00,
2013-08-07 03:27:00,52.5,48.8,30.16,South,174,0.0,0.0,87,0.00,,CLR,0.00,VWS V14.01,2013-08-07 07:27:00,
2013-08-07 03:32:00,52.5,48.8,30.16,South,175,0.0,0.0,87,0.00,,CLR,0.00,VWS V14.01,2013-08-07 07:32:00,
2013-08-07 03:37:00,52.5,48.8,30.16,South,175,0.0,0.0,87,0.00,,CLR,0.00,VWS V14.01,2013-08-07 07:37:00,
2013-08-07 03:42:00,52.5,48.8,30.19,South,175,0.0,0.0,87,0.00,,CLR,0.00,VWS V14.01,2013-08-07 07:42:00,
2013-08-07 03:47:00,52.3,48.9,30.19,South,175,0.0,0.0,88,0.00,,CLR,0.00,VWS V14.01,2013-08-07 07:47:00,
2013-08-07 03:52:00,52.3,48.9,30.19,South,175,0.0,0.0,88,0.00,,CLR,0.00,VWS V14.01,2013-08-07 07:52:00,
2013-08-07 03:57:00,52.2,48.7,30.16,South,174,0.0,0.0,88,0.00,,CLR,0.00,VWS V14.01,2013-08-07 07:57:00,
2013-08-07 04:02:00,52.2,48.7,30.16,South,174,0.0,0.0,88,0.00,,CLR,0.00,VWS V14.01,2013-08-07 08:02:00,
2013-08-07 04:07:00,52.0,48.5,30.16,South,174,0.0,0.0,88,0.00,,CLR,0.00,VWS V14.01,2013-08-07 08:07:00,
2013-08-07 04:12:00,52.0,48.5,30.16,South,174,0.0,0.0,88,0.00,,CLR,0.00,VWS V14.01,2013-08-07 08:12:00,
2013-08-07 04:17:00,51.8,48.4,30.16,South,175,0.0,0.0,88,0.00,,CLR,0.00,VWS V14.01,2013-08-07 08:17:00,
2013-08-07 04:22:00,51.6,48.5,30.16,South,175,0.0,0.0,89,0.00,,CLR,0.00,VWS V14.01,2013-08-07 08:22:00,
2013-08-07 04:27:00,51.6,48.5,30.16,South,175,0.0,0.0,89,0.00,,CLR,0.00,VWS V14.01,2013-08-07 08:27:00,
2013-08-07 04:32:00,51.4,48.3,30.16,South,175,0.0,0.0,89,0.00,,CLR,0.00,VWS V14.01,2013-08-07 08:32:00,
2013-08-07 04:37:00,51.4,48.3,30.16,South,175,0.0,0.0,89,0.00,,CLR,0.00,VWS V14.01,2013-08-07 08:37:00,
2013-08-07 04:42:00,51.3,48.1,30.16,South,175,0.0,0.0,89,0.00,,BKN060,0.00,VWS V14.01,2013-08-07 08:42:00,
2013-08-07 04:47:00,51.1,48.0,30.16,South,174,0.0,0.0,89,0.00,,BKN060,0.00,VWS V14.01,2013-08-07 08:47:00,
2013-08-07 04:52:00,51.1,48.0,30.16,South,175,0.0,0.0,89,0.00,,BKN060,0.00,VWS V14.01,2013-08-07 08:52:00,
2013-08-07 04:57:00,51.1,48.0,30.16,South,175,0.0,0.0,89,0.00,,BKN060,0.00,VWS V14.01,2013-08-07 08:57:00,
2013-08-07 05:02:00,51.1,48.0,30.16,South,175,0.0,0.0,89,0.00,,BKN060,0.00,VWS V14.01,2013-08-07 09:02:00,
2013-08-07 05:07:00,50.9,47.8,30.16,South,175,0.0,0.0,89,0.00,,BKN060,0.00,VWS V14.01,2013-08-07 09:07:00,
2013-08-07 05:12:00,50.9,47.8,30.16,South,174,0.0,0.0,89,0.00,,BKN060,0.00,VWS V14.01,2013-08-07 09:12:00,
2013-08-07 05:17:00,50.7,47.6,30.16,South,174,0.0,0.0,89,0.00,,BKN060,0.00,VWS V14.01,2013-08-07 09:17:00,
2013-08-07 05:22:00,50.7,47.6,30.16,South,175,0.0,0.0,89,0.00,,BKN060,0.00,VWS V14.01,2013-08-07 09:22:00,
2013-08-07 05:27:00,50.7,47.6,30.16,South,175,0.0,0.0,89,0.00,,BKN060,0.00,VWS V14.01,2013-08-07 09:27:00,
2013-08-07 05:32:00,50.7,47.9,30.16,South,175,0.0,0.0,90,0.00,,BKN060,0.00,VWS V14.01,2013-08-07 09:32:00,
2013-08-07 05:37:00,50.7,47.9,30.16,South,175,0.0,0.0,90,0.00,,BKN060,0.00,VWS V14.01,2013-08-07 09:37:00,
2013-08-07 05:42:00,50.9,48.1,30.16,South,175,0.0,0.0,90,0.00,,SCT065,0.00,VWS V14.01,2013-08-07 09:42:00,
2013-08-07 05:47:00,50.9,48.1,30.16,South,174,0.0,0.0,90,0.00,,SCT065,0.00,VWS V14.01,2013-08-07 09:47:00,
2013-08-07 05:52:00,50.9,48.1,30.16,South,174,0.0,0.0,90,0.00,,SCT065,0.00,VWS V14.01,2013-08-07 09:52:00,
2013-08-07 05:57:00,50.9,48.1,30.16,South,174,0.0,0.0,90,0.00,,SCT065,0.00,VWS V14.01,2013-08-07 09:57:00,
2013-08-07 06:02:00,51.1,48.2,30.16,South,174,0.0,0.0,90,0.00,,SCT065,0.00,VWS V14.01,2013-08-07 10:02:00,
2013-08-07 06:07:00,51.1,48.2,30.16,South,174,0.0,0.0,90,0.00,,SCT065,0.00,VWS V14.01,2013-08-07 10:07:00,
2013-08-07 06:12:00,51.1,48.2,30.16,South,174,0.0,0.0,90,0.00,,SCT065,0.00,VWS V14.01,2013-08-07 10:12:00,
2013-08-07 06:17:00,51.3,48.4,30.16,South,175,0.0,0.0,90,0.00,,SCT065,0.00,VWS V14.01,2013-08-07 10:17:00,
2013-08-07 06:22:00,51.4,48.9,30.16,South,175,0.0,0.0,91,0.00,,SCT065,0.00,VWS V14.01,2013-08-07 10:22:00,
2013-08-07 06:27:00,51.4,48.9,30.16,South,175,0.0,0.0,91,0.00,,SCT065,0.00,VWS V14.01,2013-08-07 10:27:00,
2013-08-07 06:32:00,51.4,48.9,30.16,South,175,0.0,0.0,91,0.00,,SCT065,0.00,VWS V14.01,2013-08-07 10:32:00,
2013-08-07 06:37:00,51.4,48.9,30.16,South,175,0.0,0.0,91,0.00,,SCT065,0.00,VWS V14.01,2013-08-07 10:37:00,
2013-08-07 06:42:00,51.6,49.1,30.16,South,175,0.0,0.0,91,0.00,,FEW065,0.00,VWS V14.01,2013-08-07 10:42:00,
2013-08-07 06:47:00,51.6,49.1,30.16,South,175,0.0,0.0,91,0.00,,FEW065,0.00,VWS V14.01,2013-08-07 10:47:00,
2013-08-07 06:52:00,51.6,49.1,30.16,South,175,0.0,0.0,91,0.00,,FEW065,0.00,VWS V14.01,2013-08-07 10:52:00,
2013-08-07 06:57:00,51.8,49.3,30.16,South,175,0.0,0.0,91,0.00,,FEW065,0.00,VWS V14.01,2013-08-07 10:57:00,
2013-08-07 07:02:00,51.8,49.3,30.16,South,175,0.0,0.0,91,0.00,,FEW065,0.00,VWS V14.01,2013-08-07 11:02:00,
2013-08-07 07:07:00,52.2,49.6,30.16,South,175,0.0,0.0,91,0.00,,FEW065,0.00,VWS V14.01,2013-08-07 11:07:00,
2013-08-07 07:12:00,52.5,50.0,30.16,South,174,0.0,0.0,91,0.00,,FEW065,0.00,VWS V14.01,2013-08-07 11:12:00,
2013-08-07 07:18:00,52.5,50.0,30.16,South,174,0.0,0.0,91,0.00,,FEW065,0.00,VWS V14.01,2013-08-07 11:18:00,
2013-08-07 07:23:00,53.1,50.8,30.16,South,175,0.0,0.0,92,0.00,,FEW065,0.00,VWS V14.01,2013-08-07 11:23:00,
2013-08-07 07:28:00,53.1,50.8,30.16,South,175,0.0,0.0,92,0.00,,FEW065,0.00,VWS V14.01,2013-08-07 11:28:00,
2013-08-07 07:33:00,53.6,51.3,30.16,South,174,0.0,0.0,92,0.00,,FEW065,0.00,VWS V14.01,2013-08-07 11:33:00,
2013-08-07 07:38:00,54.0,51.7,30.16,South,175,0.0,0.0,92,0.00,,FEW065,0.00,VWS V14.01,2013-08-07 11:38:00,
2013-08-07 07:43:00,54.3,52.0,30.16,South,175,0.0,0.0,92,0.00,,CLR,0.00,VWS V14.01,2013-08-07 11:43:00,
2013-08-07 07:48:00,54.9,52.6,30.19,South,175,0.0,0.0,92,0.00,,CLR,0.00,VWS V14.01,2013-08-07 11:48:00,
2013-08-07 07:53:00,55.2,52.9,30.19,South,175,0.0,0.0,92,0.00,,CLR,0.00,VWS V14.01,2013-08-07 11:53:00,
2013-08-07 07:58:00,55.9,53.7,30.19,South,175,0.0,0.0,92,0.00,,CLR,0.00,VWS V14.01,2013-08-07 11:58:00,
2013-08-07 08:03:00,56.1,53.8,30.19,South,175,0.0,0.0,92,0.00,,CLR,0.00,VWS V14.01,2013-08-07 12:03:00,
2013-08-07 08:08:00,56.3,54.0,30.19,South,174,0.0,0.0,92,0.00,,CLR,0.00,VWS V14.01,2013-08-07 12:08:00,
2013-08-07 08:13:00,56.7,54.4,30.19,South,175,0.0,0.0,92,0.00,,CLR,0.00,VWS V14.01,2013-08-07 12:13:00,
2013-08-07 08:18:00,57.4,55.1,30.19,South,175,0.0,0.0,92,0.00,,CLR,0.00,VWS V14.01,2013-08-07 12:18:00,
2013-08-07 08:23:00,59.4,57.0,30.19,South,175,0.0,0.0,92,0.00,,CLR,0.00,VWS V14.01,2013-08-07 12:23:00,
2013-08-07 08:28:00,60.1,57.8,30.16,South,175,0.0,0.0,92,0.00,,CLR,0.00,VWS V14.01,2013-08-07 12:28:00,
2013-08-07 08:33:00,63.7,61.3,30.16,South,175,0.0,0.0,92,0.00,,CLR,0.00,VWS V14.01,2013-08-07 12:33:00,
2013-08-07 08:38:00,63.7,61.3,30.16,SSE,162,3.1,3.1,92,0.00,,CLR,0.00,VWS V14.01,2013-08-07 12:38:00,
2013-08-07 08:43:00,65.3,62.6,30.16,South,169,0.0,3.1,91,0.00,,CLR,0.00,VWS V14.01,2013-08-07 12:43:00,
2013-08-07 08:48:00,65.7,63.0,30.16,South,169,0.0,3.1,91,0.00,,CLR,0.00,VWS V14.01,2013-08-07 12:48:00,
2013-08-07 08:53:00,65.7,63.0,30.16,South,191,2.2,2.2,91,0.00,,CLR,0.00,VWS V14.01,2013-08-07 12:53:00,
2013-08-07 08:58:00,65.8,62.5,30.16,South,186,3.1,3.1,89,0.00,,CLR,0.00,VWS V14.01,2013-08-07 12:58:00,
2013-08-07 09:03:00,65.8,62.5,30.16,South,172,2.2,2.2,89,0.00,,CLR,0.00,VWS V14.01,2013-08-07 13:03:00,
2013-08-07 09:08:00,66.2,61.9,30.16,South,172,3.6,3.6,86,0.00,,CLR,0.00,VWS V14.01,2013-08-07 13:08:00,
2013-08-07 09:13:00,66.2,61.6,30.16,South,188,0.0,3.6,85,0.00,,CLR,0.00,VWS V14.01,2013-08-07 13:13:00,
2013-08-07 09:18:00,66.2,61.2,30.16,South,187,0.0,3.6,84,0.00,,CLR,0.00,VWS V14.01,2013-08-07 13:18:00,
2013-08-07 09:23:00,66.4,60.7,30.16,South,170,2.7,2.7,82,0.00,,CLR,0.00,VWS V14.01,2013-08-07 13:23:00,
2013-08-07 09:28:00,66.4,60.7,30.16,SSE,160,5.4,5.4,82,0.00,,CLR,0.00,VWS V14.01,2013-08-07 13:28:00,
2013-08-07 09:33:00,66.4,60.7,30.16,SSE,166,0.0,0.0,82,0.00,,CLR,0.00,VWS V14.01,2013-08-07 13:33:00,
2013-08-07 09:38:00,66.6,60.2,30.16,South,175,0.0,2.2,80,0.00,,CLR,0.00,VWS V14.01,2013-08-07 13:38:00,
2013-08-07 09:43:00,66.7,60.0,30.16,South,175,0.0,0.0,79,0.00,,CLR,0.00,VWS V14.01,2013-08-07 13:43:00,
2013-08-07 09:48:00,66.7,60.0,30.16,ESE,120,0.0,3.1,79,0.00,,CLR,0.00,VWS V14.01,2013-08-07 13:48:00,
2013-08-07 09:53:00,66.9,58.4,30.16,South,170,0.0,0.0,74,0.00,,CLR,0.00,VWS V14.01,2013-08-07 13:53:00,
2013-08-07 09:58:00,67.5,57.7,30.16,SSE,162,7.6,7.6,71,0.00,,CLR,0.00,VWS V14.01,2013-08-07 13:58:00,
2013-08-07 10:03:00,67.5,57.3,30.16,South,176,0.0,7.6,70,0.00,,CLR,0.00,VWS V14.01,2013-08-07 14:03:00,
2013-08-07 10:08:00,67.8,57.3,30.16,SSE,167,7.2,7.6,69,0.00,,CLR,0.00,VWS V14.01,2013-08-07 14:08:00,
2013-08-07 10:13:00,67.8,56.9,30.13,ESE,122,0.0,7.2,68,0.00,,CLR,0.00,VWS V14.01,2013-08-07 14:13:00,
2013-08-07 10:18:00,67.8,56.9,30.13,South,175,5.8,7.2,68,0.00,,CLR,0.00,VWS V14.01,2013-08-07 14:18:00,
2013-08-07 10:23:00,67.8,56.9,30.13,South,170,2.7,5.8,68,0.00,,CLR,0.00,VWS V14.01,2013-08-07 14:23:00,
2013-08-07 10:28:00,67.8,56.9,30.13,ESE,117,0.0,5.8,68,0.00,,CLR,0.00,VWS V14.01,2013-08-07 14:28:00,
2013-08-07 10:33:00,67.8,56.9,30.13,South,180,0.0,0.0,68,0.00,,CLR,0.00,VWS V14.01,2013-08-07 14:33:00,
2013-08-07 10:38:00,69.1,54.2,30.13,SE,140,0.0,0.0,59,0.00,,CLR,0.00,VWS V14.01,2013-08-07 14:38:00,
2013-08-07 10:43:00,69.1,54.2,30.13,SE,140,0.0,0.0,59,0.00,,CLR,0.00,VWS V14.01,2013-08-07 14:43:00,
2013-08-07 10:48:00,70.0,54.1,30.13,South,190,0.0,3.6,57,0.00,,CLR,0.00,VWS V14.01,2013-08-07 14:48:00,
2013-08-07 10:53:00,70.0,54.1,30.13,South,190,0.0,0.0,57,0.00,,CLR,0.00,VWS V14.01,2013-08-07 14:53:00,
2013-08-07 10:58:00,70.0,54.1,30.13,East,101,3.1,3.6,57,0.00,,CLR,0.00,VWS V14.01,2013-08-07 14:58:00,
2013-08-07 11:03:00,70.0,54.1,30.13,South,180,6.3,6.3,57,0.00,,CLR,0.00,VWS V14.01,2013-08-07 15:03:00,
2013-08-07 11:08:00,70.0,54.1,30.13,SSE,168,3.6,6.3,57,0.00,,CLR,0.00,VWS V14.01,2013-08-07 15:08:00,
2013-08-07 11:13:00,70.0,54.1,30.13,SSE,162,5.4,5.4,57,0.00,,CLR,0.00,VWS V14.01,2013-08-07 15:13:00,
2013-08-07 11:18:00,70.0,54.1,30.13,South,173,5.8,5.8,57,0.00,,CLR,0.00,VWS V14.01,2013-08-07 15:18:00,
2013-08-07 11:23:00,70.0,54.1,30.13,SSE,159,5.4,5.8,57,0.00,,CLR,0.00,VWS V14.01,2013-08-07 15:23:00,
2013-08-07 11:28:00,70.0,54.1,30.13,SSW,199,0.0,5.8,57,0.00,,CLR,0.00,VWS V14.01,2013-08-07 15:28:00,
2013-08-07 11:33:00,73.2,51.8,30.13,SSE,160,0.0,2.7,47,0.00,,CLR,0.00,VWS V14.01,2013-08-07 15:33:00,
2013-08-07 11:38:00,73.2,51.8,30.13,South,174,5.8,5.8,47,0.00,,CLR,0.00,VWS V14.01,2013-08-07 15:38:00,
2013-08-07 11:43:00,73.2,51.8,30.13,SSE,163,4.9,5.8,47,0.00,,CLR,0.00,VWS V14.01,2013-08-07 15:43:00,
2013-08-07 11:48:00,72.3,48.6,30.13,SSE,159,6.3,6.3,43,0.00,,CLR,0.00,VWS V14.01,2013-08-07 15:48:00,
2013-08-07 11:53:00,72.3,48.6,30.13,SSE,153,3.1,6.3,43,0.00,,CLR,0.00,VWS V14.01,2013-08-07 15:53:00,
2013-08-07 11:58:00,72.3,48.6,30.13,SSW,200,6.3,6.3,43,0.00,,CLR,0.00,VWS V14.01,2013-08-07 15:58:00,
2013-08-07 12:03:00,71.8,49.3,30.13,South,172,2.7,6.3,45,0.00,,CLR,0.00,VWS V14.01,2013-08-07 16:03:00,
2013-08-07 12:08:00,71.8,49.3,30.13,SSE,155,8.7,8.7,45,0.00,,CLR,0.00,VWS V14.01,2013-08-07 16:08:00,
2013-08-07 12:13:00,71.8,49.3,30.13,SSE,150,4.9,6.3,45,0.00,,CLR,0.00,VWS V14.01,2013-08-07 16:13:00,
2013-08-07 12:18:00,71.8,49.3,30.13,SSE,149,3.1,6.3,45,0.00,,CLR,0.00,VWS V14.01,2013-08-07 16:18:00,
2013-08-07 12:23:00,71.8,49.3,30.13,South,187,5.4,5.4,45,0.00,,CLR,0.00,VWS V14.01,2013-08-07 16:23:00,
2013-08-07 12:28:00,71.8,49.3,30.13,SSE,168,3.1,5.4,45,0.00,,CLR,0.00,VWS V14.01,2013-08-07 16:28:00,
2013-08-07 12:33:00,69.3,48.8,30.13,SSE,148,4.9,4.9,48,0.00,,CLR,0.00,VWS V14.01,2013-08-07 16:33:00,
2013-08-07 12:38:00,69.4,48.9,30.13,SSE,158,2.7,4.9,48,0.00,,CLR,0.00,VWS V14.01,2013-08-07 16:38:00,
2013-08-07 12:43:00,69.4,48.9,30.13,SSE,167,3.6,3.6,48,0.00,,CLR,0.39,VWS V14.01,2013-08-07 16:43:00,
2013-08-07 12:49:00,69.4,48.9,30.13,South,173,4.9,4.9,48,0.00,,CLR,0.00,VWS V14.01,2013-08-07 16:49:00,
2013-08-07 12:54:00,69.4,48.9,30.13,SSE,167,5.8,5.8,48,0.00,,CLR,0.00,VWS V14.01,2013-08-07 16:54:00,
2013-08-07 12:59:00,68.9,49.0,30.16,SSE,164,5.8,5.8,49,0.00,,CLR,0.00,VWS V14.01,2013-08-07 16:59:00,
2013-08-07 13:04:00,68.9,49.0,30.16,South,172,8.1,8.1,49,0.00,,CLR,0.00,VWS V14.01,2013-08-07 17:04:00,
2013-08-07 13:09:00,68.7,48.8,30.16,SSE,167,5.4,8.1,49,0.00,,CLR,0.00,VWS V14.01,2013-08-07 17:09:00,
2013-08-07 13:14:00,68.5,49.2,30.16,SSE,165,3.6,5.4,50,0.00,,CLR,0.00,VWS V14.01,2013-08-07 17:14:00,
2013-08-07 13:19:00,68.5,49.2,30.16,SSW,199,4.5,5.4,50,0.00,,CLR,0.00,VWS V14.01,2013-08-07 17:19:00,
2013-08-07 13:24:00,68.2,49.4,30.16,SSE,154,5.4,5.4,51,0.00,,CLR,0.00,VWS V14.01,2013-08-07 17:24:00,
2013-08-07 13:29:00,68.2,49.4,30.16,SE,133,4.0,5.4,51,0.00,,CLR,0.00,VWS V14.01,2013-08-07 17:29:00,
2013-08-07 13:34:00,68.4,49.5,30.16,SSE,152,5.4,5.4,51,0.00,,CLR,0.00,VWS V14.01,2013-08-07 17:34:00,
2013-08-07 13:39:00,68.4,49.5,30.16,South,173,5.4,5.4,51,0.00,,CLR,0.00,VWS V14.01,2013-08-07 17:39:00,
2013-08-07 13:44:00,69.6,51.2,30.13,SE,140,2.2,5.4,52,0.00,,OVC045,0.00,VWS V14.01,2013-08-07 17:44:00,
2013-08-07 13:49:00,69.6,51.2,30.13,SE,143,4.0,5.4,52,0.00,,OVC045,0.00,VWS V14.01,2013-08-07 17:49:00,
2013-08-07 13:54:00,70.9,51.9,30.13,SSE,167,5.8,5.8,51,0.00,,OVC045,0.00,VWS V14.01,2013-08-07 17:54:00,
2013-08-07 13:59:00,72.0,51.8,30.13,SSE,160,5.4,5.8,49,0.00,,OVC045,0.00,VWS V14.01,2013-08-07 17:59:00,
2013-08-07 14:04:00,72.0,51.8,30.13,South,175,2.7,5.4,49,0.00,,OVC045,0.00,VWS V14.01,2013-08-07 18:04:00,
2013-08-07 14:09:00,72.0,51.8,30.13,SSE,149,4.0,5.4,49,0.00,,OVC045,0.00,VWS V14.01,2013-08-07 18:09:00,
2013-08-07 14:14:00,72.1,50.8,30.13,SE,146,4.0,4.0,47,0.00,,OVC045,0.00,VWS V14.01,2013-08-07 18:14:00,
2013-08-07 14:19:00,72.7,50.1,30.13,SSE,165,2.7,5.4,45,0.00,,OVC045,0.00,VWS V14.01,2013-08-07 18:19:00,
2013-08-07 14:24:00,73.0,49.9,30.13,South,173,5.4,5.4,44,0.00,,OVC045,0.00,VWS V14.01,2013-08-07 18:24:00,
2013-08-07 14:29:00,73.2,50.0,30.13,SSE,153,6.3,6.3,44,0.00,,OVC045,0.00,VWS V14.01,2013-08-07 18:29:00,
2013-08-07 14:34:00,73.4,49.6,30.13,SSE,168,5.4,5.4,43,0.00,,OVC045,0.00,VWS V14.01,2013-08-07 18:34:00,
2013-08-07 14:39:00,73.4,49.6,30.13,SSE,154,2.7,5.4,43,0.00,,OVC045,0.00,VWS V14.01,2013-08-07 18:39:00,
2013-08-07 14:44:00,73.0,49.9,30.13,SSE,150,7.6,7.6,44,0.00,,OVC055,0.00,VWS V14.01,2013-08-07 18:44:00,
2013-08-07 14:49:00,73.0,49.9,30.13,South,178,4.0,7.6,44,0.00,,OVC055,0.00,VWS V14.01,2013-08-07 18:49:00,
2013-08-07 14:54:00,73.2,50.0,30.13,SSE,151,3.6,5.4,44,0.00,,OVC055,0.00,VWS V14.01,2013-08-07 18:54:00,
2013-08-07 14:59:00,73.8,50.5,30.10,SSE,162,2.7,5.4,44,0.00,,OVC055,0.00,VWS V14.01,2013-08-07 18:59:00,
2013-08-07 15:04:00,73.8,50.5,30.10,SE,136,2.7,5.4,44,0.00,,OVC055,0.00,VWS V14.01,2013-08-07 19:04:00,
2013-08-07 15:09:00,73.8,50.5,30.10,South,177,8.7,8.7,44,0.00,,OVC055,0.00,VWS V14.01,2013-08-07 19:09:00,
2013-08-07 15:14:00,73.8,50.5,30.10,SSE,161,5.8,8.7,44,0.00,,OVC055,0.00,VWS V14.01,2013-08-07 19:14:00,
2013-08-07 15:19:00,73.9,50.1,30.10,SSE,160,4.0,8.7,43,0.00,,OVC055,0.00,VWS V14.01,2013-08-07 19:19:00,
2013-08-07 15:24:00,73.8,49.9,30.10,SSE,167,4.0,5.4,43,0.00,,OVC055,0.00,VWS V14.01,2013-08-07 19:24:00,
2013-08-07 15:29:00,73.8,49.9,30.10,SSE,156,2.7,5.4,43,0.00,,OVC055,0.00,VWS V14.01,2013-08-07 19:29:00,
2013-08-07 15:34:00,73.8,49.9,30.10,SSE,156,2.7,2.7,43,0.00,,OVC055,0.00,VWS V14.01,2013-08-07 19:34:00,
2013-08-07 15:39:00,73.8,49.9,30.10,South,175,6.3,6.3,43,0.00,,OVC055,0.00,VWS V14.01,2013-08-07 19:39:00,
2013-08-07 15:44:00,73.6,50.3,30.10,South,175,6.3,6.3,44,0.00,,BKN050,0.00,VWS V14.01,2013-08-07 19:44:00,
2013-08-07 15:49:00,73.6,51.0,30.10,SSE,164,4.0,6.3,45,0.00,,BKN050,0.00,VWS V14.01,2013-08-07 19:49:00,
2013-08-07 15:54:00,73.6,50.3,30.10,SE,133,3.6,4.0,44,0.00,,BKN050,0.00,VWS V14.01,2013-08-07 19:54:00,
2013-08-07 15:59:00,73.9,51.3,30.10,SE,136,3.1,4.0,45,0.00,,BKN050,0.00,VWS V14.01,2013-08-07 19:59:00,
2013-08-07 16:04:00,73.9,51.3,30.10,South,173,5.8,5.8,45,0.00,,BKN050,0.00,VWS V14.01,2013-08-07 20:04:00,
2013-08-07 16:09:00,72.9,50.3,30.10,SSE,155,5.8,5.8,45,0.00,,BKN050,0.00,VWS V14.01,2013-08-07 20:09:00,
2013-08-07 16:14:00,72.9,50.3,30.10,South,180,3.6,3.6,45,0.00,,BKN050,0.00,VWS V14.01,2013-08-07 20:14:00,
2013-08-07 16:19:00,72.1,50.2,30.10,South,183,0.0,3.6,46,0.00,,BKN050,0.00,VWS V14.01,2013-08-07 20:19:00,
2013-08-07 16:24:00,72.0,50.1,30.10,SSE,162,3.1,6.3,46,0.00,,BKN050,0.00,VWS V14.01,2013-08-07 20:24:00,
2013-08-07 16:29:00,71.8,50.5,30.10,SSE,162,3.1,6.3,47,0.00,,BKN050,0.00,VWS V14.01,2013-08-07 20:29:00,
2013-08-07 16:34:00,71.2,50.6,30.10,SSW,213,3.1,3.1,48,0.00,,BKN050,0.00,VWS V14.01,2013-08-07 20:34:00,
2013-08-07 16:39:00,71.2,50.6,30.10,South,179,2.2,3.1,48,0.00,,BKN050,0.00,VWS V14.01,2013-08-07 20:39:00,
2013-08-07 16:44:00,71.2,50.6,30.10,South,179,0.0,2.2,48,0.00,,SCT090,0.00,VWS V14.01,2013-08-07 20:44:00,
2013-08-07 16:49:00,70.7,51.2,30.10,SSE,153,0.0,4.0,50,0.00,,SCT090,0.00,VWS V14.01,2013-08-07 20:49:00,
2013-08-07 16:54:00,70.5,51.0,30.10,SSE,162,3.1,3.1,50,0.00,,SCT090,0.00,VWS V14.01,2013-08-07 20:54:00,
2013-08-07 16:59:00,70.3,51.4,30.10,South,190,4.0,4.0,51,0.00,,SCT090,0.00,VWS V14.01,2013-08-07 20:59:00,
2013-08-07 17:04:00,70.3,51.4,30.10,SSW,208,3.1,4.0,51,0.00,,SCT090,0.00,VWS V14.01,2013-08-07 21:04:00,
2013-08-07 17:09:00,70.2,52.2,30.10,South,182,4.0,5.4,53,0.00,,SCT090,0.00,VWS V14.01,2013-08-07 21:09:00,
2013-08-07 17:14:00,70.2,52.2,30.10,SSE,156,2.7,5.4,53,0.00,,SCT090,0.00,VWS V14.01,2013-08-07 21:14:00,
2013-08-07 17:19:00,70.0,52.6,30.10,SSE,158,3.6,5.4,54,0.00,,SCT090,0.00,VWS V14.01,2013-08-07 21:19:00,
2013-08-07 17:24:00,70.0,52.6,30.10,South,179,5.4,5.4,54,0.00,,SCT090,0.00,VWS V14.01,2013-08-07 21:24:00,
2013-08-07 17:29:00,69.8,52.9,30.07,SSE,162,6.7,6.7,55,0.00,,SCT090,0.00,VWS V14.01,2013-08-07 21:29:00,
2013-08-07 17:34:00,69.8,52.9,30.07,SSE,148,3.6,6.7,55,0.00,,SCT090,0.00,VWS V14.01,2013-08-07 21:34:00,
2013-08-07 17:39:00,69.8,52.9,30.07,SSE,153,2.2,6.7,55,0.00,,SCT090,0.00,VWS V14.01,2013-08-07 21:39:00,
2013-08-07 17:44:00,70.0,53.6,30.07,SSW,202,3.6,3.6,56,0.00,,OVC050,0.00,VWS V14.01,2013-08-07 21:44:00,
2013-08-07 17:49:00,69.8,53.4,30.07,South,187,4.9,5.8,56,0.00,,OVC050,0.00,VWS V14.01,2013-08-07 21:49:00,
2013-08-07 17:54:00,69.6,53.7,30.07,SSE,168,3.1,4.9,57,0.00,,OVC050,0.00,VWS V14.01,2013-08-07 21:54:00,
2013-08-07 17:59:00,69.6,53.7,30.07,SSE,167,3.6,4.9,57,0.00,,OVC050,0.00,VWS V14.01,2013-08-07 21:59:00,
2013-08-07 18:04:00,69.6,53.7,30.07,SSE,147,5.8,8.7,57,0.00,,OVC050,0.00,VWS V14.01,2013-08-07 22:04:00,
2013-08-07 18:09:00,69.6,53.7,30.07,SSE,167,3.6,8.7,57,0.00,,OVC050,0.00,VWS V14.01,2013-08-07 22:09:00,
2013-08-07 18:14:00,68.9,54.0,30.07,SE,128,4.0,4.0,59,0.00,,OVC050,0.00,VWS V14.01,2013-08-07 22:14:00,
2013-08-07 18:19:00,68.9,54.5,30.07,SE,141,4.9,4.9,60,0.00,,OVC050,0.00,VWS V14.01,2013-08-07 22:19:00,
2013-08-07 18:24:00,68.9,54.5,30.07,South,171,5.4,5.4,60,0.00,,OVC050,0.00,VWS V14.01,2013-08-07 22:24:00,
2013-08-07 18:29:00,68.9,54.5,30.07,SSE,156,4.5,5.4,60,0.00,,OVC050,0.00,VWS V14.01,2013-08-07 22:29:00,
2013-08-07 18:34:00,68.7,54.3,30.07,SSW,202,5.8,5.8,60,0.00,,OVC050,0.00,VWS V14.01,2013-08-07 22:34:00,
2013-08-07 18:39:00,68.7,54.3,30.07,South,169,3.1,5.8,60,0.00,,OVC050,0.00,VWS V14.01,2013-08-07 22:39:00,
2013-08-07 18:44:00,68.4,54.4,30.07,East,82,2.7,4.0,61,0.00,,OVC070,0.00,VWS V14.01,2013-08-07 22:44:00,
2013-08-07 18:49:00,68.2,54.7,30.07,SSE,147,5.8,5.8,62,0.00,,OVC070,0.00,VWS V14.01,2013-08-07 22:49:00,
2013-08-07 18:54:00,68.2,54.7,30.07,SE,128,3.1,4.0,62,0.00,,OVC070,0.00,VWS V14.01,2013-08-07 22:54:00,
2013-08-07 18:59:00,68.0,54.5,30.07,ESE,117,0.0,4.0,62,0.00,,OVC070,0.00,VWS V14.01,2013-08-07 22:59:00,
2013-08-07 19:04:00,68.0,54.5,30.07,SE,130,5.8,5.8,62,0.00,,OVC070,0.00,VWS V14.01,2013-08-07 23:04:00,
2013-08-07 19:09:00,68.0,54.5,30.07,South,176,2.7,5.8,62,0.00,,OVC070,0.00,VWS V14.01,2013-08-07 23:09:00,
2013-08-07 19:14:00,67.8,54.8,30.07,SSE,168,5.8,5.8,63,0.00,,OVC070,0.00,VWS V14.01,2013-08-07 23:14:00,
2013-08-07 19:19:00,67.8,55.2,30.07,SSE,155,3.6,5.8,64,0.00,,OVC070,0.00,VWS V14.01,2013-08-07 23:19:00,
2013-08-07 19:24:00,67.8,55.2,30.07,SSE,154,3.6,5.4,64,0.00,,OVC070,0.00,VWS V14.01,2013-08-07 23:24:00,
2013-08-07 19:29:00,67.8,55.2,30.07,SSE,156,3.1,5.4,64,0.00,,OVC070,0.00,VWS V14.01,2013-08-07 23:29:00,
2013-08-07 19:34:00,67.8,55.2,30.07,SE,135,0.0,8.3,64,0.00,,OVC070,0.00,VWS V14.01,2013-08-07 23:34:00,
2013-08-07 19:39:00,67.8,55.2,30.07,SSE,149,2.7,8.3,64,0.00,,OVC070,0.00,VWS V14.01,2013-08-07 23:39:00,
2013-08-07 19:44:00,67.8,55.6,30.07,SSE,151,4.9,5.8,65,0.00,,OVC032,0.00,VWS V14.01,2013-08-07 23:44:00,
2013-08-07 19:49:00,67.8,55.6,30.07,South,171,5.4,5.8,65,0.00,,OVC032,0.00,VWS V14.01,2013-08-07 23:49:00,
2013-08-07 19:55:00,67.8,55.6,30.07,South,170,2.7,5.4,65,0.00,,OVC028,0.00,VWS V14.01,2013-08-07 23:55:00,
2013-08-07 20:00:00,67.8,55.6,30.07,SE,139,3.1,5.4,65,0.00,,OVC028,0.00,VWS V14.01,2013-08-08 00:00:00,
2013-08-07 20:05:00,67.8,55.6,30.07,SSE,160,4.9,4.9,65,0.00,,OVC028,0.00,VWS V14.01,2013-08-08 00:05:00,
2013-08-07 20:10:00,67.6,55.9,30.07,SSW,202,5.8,10.5,66,0.00,,OVC028,0.00,VWS V14.01,2013-08-08 00:10:00,
2013-08-07 20:15:00,67.6,55.9,30.07,South,183,8.1,8.1,66,0.00,,OVC028,0.00,VWS V14.01,2013-08-08 00:15:00,
2013-08-07 20:20:00,67.6,55.9,30.07,South,177,4.5,8.1,66,0.00,,OVC028,0.00,VWS V14.01,2013-08-08 00:20:00,
2013-08-07 20:25:00,67.6,55.9,30.07,South,171,4.9,5.4,66,0.00,,OVC028,0.00,VWS V14.01,2013-08-08 00:25:00,
2013-08-07 20:30:00,67.6,55.9,30.07,South,172,5.4,5.8,66,0.00,,OVC028,0.00,VWS V14.01,2013-08-08 00:30:00,
2013-08-07 20:35:00,67.6,55.9,30.07,SSE,154,6.3,6.3,66,0.00,,OVC028,0.00,VWS V14.01,2013-08-08 00:35:00,
2013-08-07 20:40:00,67.6,55.9,30.07,SSE,156,5.8,6.3,66,0.00,,OVC028,0.00,VWS V14.01,2013-08-08 00:40:00,
2013-08-07 20:45:00,67.6,55.9,30.07,SSE,162,6.3,9.6,66,0.00,,OVC028,0.00,VWS V14.01,2013-08-08 00:45:00,
2013-08-07 20:50:00,67.6,56.3,30.07,SSE,154,5.4,5.4,67,0.00,,OVC028,0.00,VWS V14.01,2013-08-08 00:50:00,
2013-08-07 20:55:00,67.5,56.1,30.07,SSE,163,5.4,5.4,67,0.00,,OVC028,0.00,VWS V14.01,2013-08-08 00:55:00,
2013-08-07 21:00:00,67.5,56.1,30.07,SSE,154,5.8,5.8,67,0.00,,OVC028,0.00,VWS V14.01,2013-08-08 01:00:00,
2013-08-07 21:05:00,67.5,56.1,30.07,SSE,162,3.6,6.3,67,0.00,,OVC028,0.00,VWS V14.01,2013-08-08 01:05:00,
2013-08-07 21:10:00,67.5,56.1,30.07,South,181,7.2,7.2,67,0.00,,OVC028,0.00,VWS V14.01,2013-08-08 01:10:00,
2013-08-07 21:15:00,67.5,56.5,30.07,SSE,153,4.9,7.2,68,0.00,,OVC028,0.00,VWS V14.01,2013-08-08 01:15:00,
2013-08-07 21:20:00,67.5,56.5,30.07,South,179,4.5,4.5,68,0.00,,OVC028,0.00,VWS V14.01,2013-08-08 01:20:00,
2013-08-07 21:25:00,67.5,56.5,30.07,SSE,152,5.8,7.6,68,0.00,,OVC028,0.00,VWS V14.01,2013-08-08 01:25:00,
2013-08-07 21:30:00,67.5,56.5,30.07,SE,139,5.8,5.8,68,0.00,,OVC028,0.00,VWS V14.01,2013-08-08 01:30:00,
2013-08-07 21:35:00,67.5,56.5,30.07,SSE,164,5.8,5.8,68,0.00,,OVC028,0.00,VWS V14.01,2013-08-08 01:35:00,
2013-08-07 21:40:00,67.5,56.5,30.07,SSE,160,5.4,5.4,68,0.00,,OVC028,0.00,VWS V14.01,2013-08-08 01:40:00,
2013-08-07 21:45:00,67.5,56.5,30.07,SSE,151,3.6,5.4,68,0.00,,OVC028,0.00,VWS V14.01,2013-08-08 01:45:00,
2013-08-07 21:50:00,67.5,56.5,30.07,South,188,4.9,4.9,68,0.00,,OVC028,0.00,VWS V14.01,2013-08-08 01:50:00,
2013-08-07 21:55:00,67.5,57.0,30.07,SSE,163,3.6,4.9,69,0.00,,OVC028,0.00,VWS V14.01,2013-08-08 01:55:00,
2013-08-07 22:00:00,67.5,57.0,30.07,SSE,156,5.4,5.4,69,0.00,,OVC028,0.00,VWS V14.01,2013-08-08 02:00:00,
2013-08-07 22:05:00,67.5,57.0,30.07,SSE,156,5.4,5.4,69,0.00,,OVC028,0.00,VWS V14.01,2013-08-08 02:05:00,
2013-08-07 22:10:00,67.5,57.0,30.07,SSE,166,7.2,7.2,69,0.00,,OVC028,0.00,VWS V14.01,2013-08-08 02:10:00,
2013-08-07 22:15:00,67.5,57.0,30.07,SE,146,6.3,7.2,69,0.00,,OVC028,0.00,VWS V14.01,2013-08-08 02:15:00,
2013-08-07 22:20:00,67.5,57.0,30.07,SSE,165,5.4,8.7,69,0.00,,OVC028,0.00,VWS V14.01,2013-08-08 02:20:00,
2013-08-07 22:25:00,67.5,57.0,30.07,SE,146,6.3,8.7,69,0.00,,OVC028,0.00,VWS V14.01,2013-08-08 02:25:00,
2013-08-07 22:30:00,67.5,57.0,30.07,SSE,152,8.3,8.3,69,0.00,,OVC028,0.00,VWS V14.01,2013-08-08 02:30:00,
2013-08-07 22:35:00,67.5,57.0,30.07,SSE,160,6.3,8.3,69,0.00,,OVC028,0.00,VWS V14.01,2013-08-08 02:35:00,
2013-08-07 22:40:00,67.5,57.0,30.07,SSE,160,6.3,6.3,69,0.00,,OVC028,0.00,VWS V14.01,2013-08-08 02:40:00,
2013-08-07 22:45:00,67.5,57.0,30.07,SSE,163,3.6,6.3,69,0.00,,OVC028,0.00,VWS V14.01,2013-08-08 02:45:00,
2013-08-07 22:51:00,67.5,57.0,30.07,South,187,5.4,5.4,69,0.00,,OVC028,0.00,VWS V14.01,2013-08-08 02:51:00,
2013-08-07 22:56:00,67.5,57.0,30.07,SSE,156,4.0,7.6,69,0.00,,OVC028,0.00,VWS V14.01,2013-08-08 02:56:00,
2013-08-07 23:01:00,67.5,57.0,30.07,South,173,8.3,8.3,69,0.00,,OVC028,0.00,VWS V14.01,2013-08-08 03:01:00,
2013-08-07 23:06:00,67.5,57.3,30.07,SSE,164,8.3,9.2,70,0.00,,OVC028,0.00,VWS V14.01,2013-08-08 03:06:00,
2013-08-07 23:11:00,67.5,57.3,30.07,SSE,150,8.7,8.7,70,0.00,,OVC028,0.00,VWS V14.01,2013-08-08 03:11:00,
2013-08-07 23:16:00,67.5,57.3,30.07,SSE,150,8.7,8.7,70,0.00,,OVC028,0.00,VWS V14.01,2013-08-08 03:16:00,
2013-08-07 23:21:00,67.5,57.3,30.04,SE,146,5.4,5.4,70,0.00,,OVC028,0.00,VWS V14.01,2013-08-08 03:21:00,
2013-08-07 23:26:00,67.5,57.3,30.04,SSE,157,7.6,7.6,70,0.00,,OVC028,0.00,VWS V14.01,2013-08-08 03:26:00,
2013-08-07 23:31:00,67.5,57.3,30.04,SSE,151,10.1,10.1,70,0.00,,OVC028,0.00,VWS V14.01,2013-08-08 03:31:00,
2013-08-07 23:36:00,67.5,57.3,30.04,SSE,151,10.1,10.1,70,0.00,,OVC028,0.00,VWS V14.01,2013-08-08 03:36:00,
2013-08-07 23:41:00,67.5,57.3,30.04,SE,140,9.2,9.2,70,0.00,,OVC026,0.00,VWS V14.01,2013-08-08 03:41:00,
2013-08-07 23:46:00,67.5,57.3,30.04,SSE,156,5.4,9.2,70,0.00,,OVC026,0.00,VWS V14.01,2013-08-08 03:46:00,
2013-08-07 23:51:00,67.3,57.2,30.04,SE,141,5.4,5.4,70,0.00,,OVC026,0.00,VWS V14.01,2013-08-08 03:51:00,
2013-08-07 23:56:00,67.3,57.2,30.04,SSE,156,5.8,5.8,70,0.00,,OVC026,0.00,VWS V14.01,2013-08-08 03:56:00,